sensor_id;sensor_type;location;lat;lon;timestamp;pressure;altitude;pressure_sealevel;temperature;humidity
44138;BME280;29800;55.942;37.314;2023-03-15T00:01:13;98743.91;;;3.99;51.97
44138;BME280;29800;55.942;37.314;2023-03-15T00:03:40;98743.31;;;3.97;52.65
44138;BME280;29800;55.942;37.314;2023-03-15T00:06:08;98734.59;;;3.95;51.98
44138;BME280;29800;55.942;37.314;2023-03-15T00:08:34;98739.66;;;3.91;52.92
44138;BME280;29800;55.942;37.314;2023-03-15T00:11:01;98742.72;;;3.95;52.66
44138;BME280;29800;55.942;37.314;2023-03-15T00:13:28;98738.38;;;3.94;52.33
44138;BME280;29800;55.942;37.314;2023-03-15T00:15:59;98739.19;;;3.94;52.82
44138;BME280;29800;55.942;37.314;2023-03-15T00:18:26;98742.03;;;3.99;52.63
44138;BME280;29800;55.942;37.314;2023-03-15T00:20:52;98749.91;;;4.01;52.43
44138;BME280;29800;55.942;37.314;2023-03-15T00:23:19;98733.44;;;4.02;52.52
44138;BME280;29800;55.942;37.314;2023-03-15T00:25:47;98736.16;;;4.02;52.84
44138;BME280;29800;55.942;37.314;2023-03-15T00:28:14;98743.31;;;3.97;52.87
44138;BME280;29800;55.942;37.314;2023-03-15T00:30:41;98736.72;;;3.93;52.96
44138;BME280;29800;55.942;37.314;2023-03-15T00:33:08;98736.72;;;3.93;52.97
44138;BME280;29800;55.942;37.314;2023-03-15T00:35:40;98740.91;;;3.89;53.71
44138;BME280;29800;55.942;37.314;2023-03-15T00:38:08;98735.66;;;3.94;53.33
44138;BME280;29800;55.942;37.314;2023-03-15T00:40:36;98741.31;;;3.92;53.40
44138;BME280;29800;55.942;37.314;2023-03-15T00:43:02;98736.72;;;3.93;53.53
44138;BME280;29800;55.942;37.314;2023-03-15T00:45:29;98740.47;;;3.92;53.34
44138;BME280;29800;55.942;37.314;2023-03-15T00:47:55;98738.22;;;3.89;53.90
44138;BME280;29800;55.942;37.314;2023-03-15T00:50:22;98739.75;;;3.84;54.24
44138;BME280;29800;55.942;37.314;2023-03-15T00:52:48;98739.06;;;3.89;53.46
44138;BME280;29800;55.942;37.314;2023-03-15T00:55:17;98734.00;;;3.93;53.42
44138;BME280;29800;55.942;37.314;2023-03-15T00:57:44;98745.28;;;3.90;53.66
44138;BME280;29800;55.942;37.314;2023-03-15T01:00:16;98736.72;;;3.93;53.74
44138;BME280;29800;55.942;37.314;2023-03-15T01:02:45;98732.97;;;3.94;53.79
44138;BME280;29800;55.942;37.314;2023-03-15T01:05:11;98742.25;;;3.98;53.49
44138;BME280;29800;55.942;37.314;2023-03-15T01:07:39;98741.31;;;3.92;54.13
44138;BME280;29800;55.942;37.314;2023-03-15T01:10:06;98739.66;;;3.91;53.94
44138;BME280;29800;55.942;37.314;2023-03-15T01:12:33;98744.25;;;3.91;54.24
44138;BME280;29800;55.942;37.314;2023-03-15T01:15:01;98739.66;;;3.91;54.44
44138;BME280;29800;55.942;37.314;2023-03-15T01:17:30;98739.88;;;3.90;54.02
44138;BME280;29800;55.942;37.314;2023-03-15T01:19:57;98742.22;;;3.86;54.19
44138;BME280;29800;55.942;37.314;2023-03-15T01:22:24;98740.91;;;3.89;54.64
44138;BME280;29800;55.942;37.314;2023-03-15T01:24:50;98746.72;;;3.92;54.23
44138;BME280;29800;55.942;37.314;2023-03-15T01:27:17;98735.38;;;3.83;54.39
44138;BME280;29800;55.942;37.314;2023-03-15T01:29:44;98737.03;;;3.84;54.42
44138;BME280;29800;55.942;37.314;2023-03-15T01:32:12;98736.81;;;3.86;54.92
44138;BME280;29800;55.942;37.314;2023-03-15T01:34:39;98734.59;;;3.95;54.19
44138;BME280;29800;55.942;37.314;2023-03-15T01:37:09;98735.06;;;3.92;54.63
44138;BME280;29800;55.942;37.314;2023-03-15T01:39:42;98738.84;;;3.91;55.02
44138;BME280;29800;55.942;37.314;2023-03-15T01:42:09;98743.88;;;3.87;54.52
44138;BME280;29800;55.942;37.314;2023-03-15T01:47:51;98736.72;;;3.93;54.56
44138;BME280;29800;55.942;37.314;2023-03-15T01:50:18;98737.63;;;3.86;55.35
44138;BME280;29800;55.942;37.314;2023-03-15T01:52:45;98747.63;;;3.86;55.20
44138;BME280;29800;55.942;37.314;2023-03-15T01:55:18;98744.69;;;3.88;55.34
44138;BME280;29800;55.942;37.314;2023-03-15T01:58:05;98750.00;;;3.82;55.40
44138;BME280;29800;55.942;37.314;2023-03-15T02:00:35;98754.31;;;3.83;55.38
44138;BME280;29800;55.942;37.314;2023-03-15T02:03:11;98749.63;;;3.79;55.75
44138;BME280;29800;55.942;37.314;2023-03-15T02:05:52;98743.38;;;3.78;55.89
44138;BME280;29800;55.942;37.314;2023-03-15T02:08:32;98747.75;;;3.79;56.00
44138;BME280;29800;55.942;37.314;2023-03-15T02:11:00;98747.28;;;3.82;55.96
44138;BME280;29800;55.942;37.314;2023-03-15T02:13:29;98750.22;;;3.81;56.04
44138;BME280;29800;55.942;37.314;2023-03-15T02:16:00;98752.06;;;3.80;56.15
44138;BME280;29800;55.942;37.314;2023-03-15T02:18:37;98754.78;;;3.80;56.10
44138;BME280;29800;55.942;37.314;2023-03-15T02:21:07;98759.38;;;3.80;55.89
44138;BME280;29800;55.942;37.314;2023-03-15T02:23:38;98763.66;;;3.88;55.70
44138;BME280;29800;55.942;37.314;2023-03-15T02:28:40;98746.66;;;3.80;56.25
44138;BME280;29800;55.942;37.314;2023-03-15T02:31:08;98751.94;;;3.75;56.65
44138;BME280;29800;55.942;37.314;2023-03-15T02:33:42;98760.59;;;3.84;56.45
44138;BME280;29800;55.942;37.314;2023-03-15T02:36:19;98753.75;;;3.81;56.79
44138;BME280;29800;55.942;37.314;2023-03-15T02:38:46;98752.06;;;3.80;56.90
44138;BME280;29800;55.942;37.314;2023-03-15T02:41:20;98756.00;;;3.84;56.39
44138;BME280;29800;55.942;37.314;2023-03-15T02:43:51;98753.97;;;3.80;56.75
44138;BME280;29800;55.942;37.314;2023-03-15T02:46:19;98742.78;;;3.76;57.02
44138;BME280;29800;55.942;37.314;2023-03-15T02:48:46;98749.75;;;3.84;56.90
44138;BME280;29800;55.942;37.314;2023-03-15T02:51:19;98748.56;;;3.80;57.20
44138;BME280;29800;55.942;37.314;2023-03-15T02:53:46;98749.84;;;3.77;57.28
44138;BME280;29800;55.942;37.314;2023-03-15T02:56:13;98743.38;;;3.78;57.79
44138;BME280;29800;55.942;37.314;2023-03-15T02:58:40;98745.25;;;3.78;57.67
44138;BME280;29800;55.942;37.314;2023-03-15T03:01:06;98744.44;;;3.77;57.76
44138;BME280;29800;55.942;37.314;2023-03-15T03:03:33;98740.19;;;3.81;57.42
44138;BME280;29800;55.942;37.314;2023-03-15T03:06:00;98740.78;;;3.83;57.63
44138;BME280;29800;55.942;37.314;2023-03-15T03:08:26;98738.69;;;3.85;57.59
44138;BME280;29800;55.942;37.314;2023-03-15T03:10:52;98744.34;;;3.84;57.95
44138;BME280;29800;55.942;37.314;2023-03-15T03:13:19;98756.34;;;3.88;57.32
44138;BME280;29800;55.942;37.314;2023-03-15T03:15:48;98757.16;;;3.89;57.28
44138;BME280;29800;55.942;37.314;2023-03-15T03:18:14;98756.81;;;3.85;57.81
44138;BME280;29800;55.942;37.314;2023-03-15T03:20:41;98753.50;;;3.83;58.04
44138;BME280;29800;55.942;37.314;2023-03-15T03:23:10;98762.22;;;3.85;57.94
44138;BME280;29800;55.942;37.314;2023-03-15T03:25:37;98753.28;;;3.84;57.63
44138;BME280;29800;55.942;37.314;2023-03-15T03:28:03;98756.00;;;3.84;58.12
44138;BME280;29800;55.942;37.314;2023-03-15T03:30:30;98773.81;;;3.92;57.81
44138;BME280;29800;55.942;37.314;2023-03-15T03:32:56;98764.13;;;3.84;57.82
44138;BME280;29800;55.942;37.314;2023-03-15T03:35:23;98771.78;;;3.88;58.26
44138;BME280;29800;55.942;37.314;2023-03-15T03:37:49;98768.94;;;3.82;58.27
44138;BME280;29800;55.942;37.314;2023-03-15T03:40:22;98773.59;;;3.75;58.25
44138;BME280;29800;55.942;37.314;2023-03-15T03:42:48;98773.47;;;3.70;58.46
44138;BME280;29800;55.942;37.314;2023-03-15T03:45:17;98774.53;;;3.69;58.77
44138;BME280;29800;55.942;37.314;2023-03-15T03:47:46;98779.31;;;3.67;58.58
44138;BME280;29800;55.942;37.314;2023-03-15T03:50:12;98778.28;;;3.68;58.54
44138;BME280;29800;55.942;37.314;2023-03-15T03:52:39;98766.88;;;3.66;58.52
44138;BME280;29800;55.942;37.314;2023-03-15T03:55:12;98760.38;;;3.67;58.92
44138;BME280;29800;55.942;37.314;2023-03-15T03:57:41;98763.31;;;3.65;59.04
44138;BME280;29800;55.942;37.314;2023-03-15T04:00:12;98752.88;;;3.69;58.69
44138;BME280;29800;55.942;37.314;2023-03-15T04:02:40;98756.88;;;3.66;59.19
44138;BME280;29800;55.942;37.314;2023-03-15T04:05:11;98757.44;;;3.68;58.73
44138;BME280;29800;55.942;37.314;2023-03-15T04:07:38;98761.72;;;3.76;58.64
44138;BME280;29800;55.942;37.314;2023-03-15T04:10:06;98760.69;;;3.77;58.54
44138;BME280;29800;55.942;37.314;2023-03-15T04:12:34;98757.59;;;3.74;58.61
44138;BME280;29800;55.942;37.314;2023-03-15T04:15:00;98754.88;;;3.74;58.56
44138;BME280;29800;55.942;37.314;2023-03-15T04:17:31;98758.31;;;3.69;58.95
44138;BME280;29800;55.942;37.314;2023-03-15T04:19:57;98767.00;;;3.71;58.88
44138;BME280;29800;55.942;37.314;2023-03-15T04:22:28;98757.59;;;3.74;59.07
44138;BME280;29800;55.942;37.314;2023-03-15T04:25:05;98765.03;;;3.78;58.52
44138;BME280;29800;55.942;37.314;2023-03-15T04:27:54;98773.66;;;3.87;58.16
44138;BME280;29800;55.942;37.314;2023-03-15T04:30:45;98771.31;;;3.91;57.73
44138;BME280;29800;55.942;37.314;2023-03-15T04:33:35;98775.06;;;3.90;58.09
44138;BME280;29800;55.942;37.314;2023-03-15T04:36:22;98784.25;;;3.89;58.14
44138;BME280;29800;55.942;37.314;2023-03-15T04:39:11;98798.03;;;3.87;58.04
44138;BME280;29800;55.942;37.314;2023-03-15T04:42:10;98787.56;;;3.91;57.64
44138;BME280;29800;55.942;37.314;2023-03-15T04:44:48;98788.59;;;3.90;57.99
44138;BME280;29800;55.942;37.314;2023-03-15T04:47:34;98791.44;;;3.95;57.58
44138;BME280;29800;55.942;37.314;2023-03-15T04:50:20;98793.13;;;3.96;57.44
44138;BME280;29800;55.942;37.314;2023-03-15T04:53:14;98799.47;;;4.01;57.92
44138;BME280;29800;55.942;37.314;2023-03-15T04:55:55;98803.16;;;4.07;57.37
44138;BME280;29800;55.942;37.314;2023-03-15T04:58:44;98811.78;;;4.16;57.33
44138;BME280;29800;55.942;37.314;2023-03-15T05:01:40;98807.34;;;4.21;56.64
44138;BME280;29800;55.942;37.314;2023-03-15T05:04:15;98821.47;;;4.23;56.94
44138;BME280;29800;55.942;37.314;2023-03-15T05:07:08;98818.28;;;4.27;56.66
44138;BME280;29800;55.942;37.314;2023-03-15T05:09:53;98825.25;;;4.34;56.08
44138;BME280;29800;55.942;37.314;2023-03-15T05:12:35;98831.06;;;4.38;56.15
44138;BME280;29800;55.942;37.314;2023-03-15T05:15:33;98839.56;;;4.53;55.62
44138;BME280;29800;55.942;37.314;2023-03-15T05:18:32;98832.88;;;4.68;54.90
44138;BME280;29800;55.942;37.314;2023-03-15T05:21:34;98838.53;;;4.78;54.48
44138;BME280;29800;55.942;37.314;2023-03-15T05:24:15;98832.75;;;4.86;54.27
44138;BME280;29800;55.942;37.314;2023-03-15T05:26:51;98843.25;;;4.94;54.40
44138;BME280;29800;55.942;37.314;2023-03-15T05:29:34;98829.69;;;5.06;53.28
44138;BME280;29800;55.942;37.314;2023-03-15T05:32:14;98830.75;;;5.17;52.93
44138;BME280;29800;55.942;37.314;2023-03-15T05:35:03;98844.06;;;5.30;52.76
44138;BME280;29800;55.942;37.314;2023-03-15T05:38:07;98840.66;;;5.35;52.71
44138;BME280;29800;55.942;37.314;2023-03-15T05:41:00;98838.63;;;5.42;51.64
44138;BME280;29800;55.942;37.314;2023-03-15T05:43:40;98844.53;;;5.51;51.59
44138;BME280;29800;55.942;37.314;2023-03-15T05:46:25;98844.88;;;5.55;51.40
44138;BME280;29800;55.942;37.314;2023-03-15T05:48:54;98868.59;;;5.59;50.80
44138;BME280;29800;55.942;37.314;2023-03-15T05:51:29;98851.94;;;5.56;50.75
44138;BME280;29800;55.942;37.314;2023-03-15T05:54:14;98862.56;;;5.57;50.78
44138;BME280;29800;55.942;37.314;2023-03-15T05:57:03;98858.53;;;5.71;51.01
44138;BME280;29800;55.942;37.314;2023-03-15T05:59:53;98857.69;;;5.83;50.16
44138;BME280;29800;55.942;37.314;2023-03-15T06:02:42;98865.53;;;6.08;50.54
44138;BME280;29800;55.942;37.314;2023-03-15T06:05:37;98864.03;;;6.00;49.29
44138;BME280;29800;55.942;37.314;2023-03-15T06:08:07;98871.72;;;6.03;49.35
44138;BME280;29800;55.942;37.314;2023-03-15T06:10:37;98866.50;;;6.02;49.07
44138;BME280;29800;55.942;37.314;2023-03-15T06:13:07;98868.25;;;6.08;49.20
44138;BME280;29800;55.942;37.314;2023-03-15T06:15:33;98871.56;;;6.10;48.91
44138;BME280;29800;55.942;37.314;2023-03-15T06:18:00;98868.31;;;6.25;48.41
44138;BME280;29800;55.942;37.314;2023-03-15T06:20:27;98884.00;;;6.35;48.55
44138;BME280;29800;55.942;37.314;2023-03-15T06:22:59;98872.47;;;6.44;48.66
44138;BME280;29800;55.942;37.314;2023-03-15T06:25:33;98868.28;;;6.54;48.62
44138;BME280;29800;55.942;37.314;2023-03-15T06:27:59;98887.50;;;6.64;47.60
44138;BME280;29800;55.942;37.314;2023-03-15T06:30:26;98889.56;;;6.74;47.99
44138;BME280;29800;55.942;37.314;2023-03-15T06:32:56;98887.84;;;6.85;47.22
44138;BME280;29800;55.942;37.314;2023-03-15T06:35:23;98888.75;;;6.90;47.09
44138;BME280;29800;55.942;37.314;2023-03-15T06:37:49;98894.38;;;7.01;46.89
44138;BME280;29800;55.942;37.314;2023-03-15T06:40:17;98888.34;;;7.15;46.27
44138;BME280;29800;55.942;37.314;2023-03-15T06:42:45;98891.00;;;7.10;46.10
44138;BME280;29800;55.942;37.314;2023-03-15T06:45:14;98887.59;;;7.03;46.76
44138;BME280;29800;55.942;37.314;2023-03-15T06:47:41;98889.25;;;7.04;45.89
44138;BME280;29800;55.942;37.314;2023-03-15T06:50:09;98896.94;;;7.07;46.79
44138;BME280;29800;55.942;37.314;2023-03-15T06:52:35;98892.63;;;7.11;46.61
44138;BME280;29800;55.942;37.314;2023-03-15T06:55:04;98897.75;;;7.08;46.03
44138;BME280;29800;55.942;37.314;2023-03-15T06:57:30;98896.25;;;7.00;46.82
44138;BME280;29800;55.942;37.314;2023-03-15T06:59:56;98905.41;;;6.94;47.09
44138;BME280;29800;55.942;37.314;2023-03-15T07:02:23;98903.09;;;6.86;47.14
44138;BME280;29800;55.942;37.314;2023-03-15T07:04:49;98904.81;;;6.92;46.43
44138;BME280;29800;55.942;37.314;2023-03-15T07:07:15;98908.72;;;6.96;47.15
44138;BME280;29800;55.942;37.314;2023-03-15T07:09:42;98907.25;;;7.05;46.49
44138;BME280;29800;55.942;37.314;2023-03-15T07:12:09;98906.72;;;7.08;46.65
44138;BME280;29800;55.942;37.314;2023-03-15T07:14:35;98909.03;;;7.16;46.51
44138;BME280;29800;55.942;37.314;2023-03-15T07:17:02;98907.53;;;7.26;46.34
44138;BME280;29800;55.942;37.314;2023-03-15T07:19:29;98908.34;;;7.26;46.35
44138;BME280;29800;55.942;37.314;2023-03-15T07:21:55;98920.16;;;7.32;46.23
44138;BME280;29800;55.942;37.314;2023-03-15T07:24:21;98915.72;;;7.26;46.23
44138;BME280;29800;55.942;37.314;2023-03-15T07:26:48;98923.56;;;7.22;46.93
44138;BME280;29800;55.942;37.314;2023-03-15T07:29:15;98913.25;;;7.24;47.05
44138;BME280;29800;55.942;37.314;2023-03-15T07:31:43;98921.06;;;7.21;47.11
44138;BME280;29800;55.942;37.314;2023-03-15T07:34:09;98919.91;;;7.16;46.73
44138;BME280;29800;55.942;37.314;2023-03-15T07:36:35;98918.53;;;7.14;46.34
44138;BME280;29800;55.942;37.314;2023-03-15T07:39:02;98912.50;;;7.12;47.19
44138;BME280;29800;55.942;37.314;2023-03-15T07:41:29;98919.50;;;7.08;47.14
44138;BME280;29800;55.942;37.314;2023-03-15T07:44:04;98931.63;;;7.34;46.81
44138;BME280;29800;55.942;37.314;2023-03-15T07:46:31;98923.22;;;7.18;47.09
44138;BME280;29800;55.942;37.314;2023-03-15T07:48:57;98923.94;;;7.31;46.46
44138;BME280;29800;55.942;37.314;2023-03-15T07:51:24;98925.19;;;7.40;46.21
44138;BME280;29800;55.942;37.314;2023-03-15T07:53:50;98925.25;;;7.45;45.95
44138;BME280;29800;55.942;37.314;2023-03-15T07:56:16;98918.59;;;7.53;45.54
44138;BME280;29800;55.942;37.314;2023-03-15T07:58:42;98922.44;;;7.74;46.09
44138;BME280;29800;55.942;37.314;2023-03-15T08:01:09;98926.56;;;7.99;45.83
44138;BME280;29800;55.942;37.314;2023-03-15T08:03:35;98930.63;;;8.18;45.12
44138;BME280;29800;55.942;37.314;2023-03-15T08:06:01;98935.88;;;8.25;44.68
44138;BME280;29800;55.942;37.314;2023-03-15T08:08:28;98935.69;;;8.32;44.92
44138;BME280;29800;55.942;37.314;2023-03-15T08:10:54;98934.03;;;8.31;44.70
44138;BME280;29800;55.942;37.314;2023-03-15T08:13:20;98942.25;;;8.36;44.55
44138;BME280;29800;55.942;37.314;2023-03-15T08:15:47;98946.09;;;8.35;44.89
44138;BME280;29800;55.942;37.314;2023-03-15T08:18:13;98937.13;;;8.39;44.53
44138;BME280;29800;55.942;37.314;2023-03-15T08:20:39;98941.59;;;8.45;44.88
44138;BME280;29800;55.942;37.314;2023-03-15T08:23:06;98934.88;;;8.53;44.65
44138;BME280;29800;55.942;37.314;2023-03-15T08:25:34;98936.25;;;8.83;44.14
44138;BME280;29800;55.942;37.314;2023-03-15T08:28:01;98943.22;;;9.28;43.20
44138;BME280;29800;55.942;37.314;2023-03-15T08:30:27;98940.09;;;9.52;42.76
44138;BME280;29800;55.942;37.314;2023-03-15T08:32:53;98941.78;;;9.58;41.87
44138;BME280;29800;55.942;37.314;2023-03-15T08:35:21;98942.59;;;9.59;42.10
44138;BME280;29800;55.942;37.314;2023-03-15T08:37:47;98950.31;;;9.67;42.40
44138;BME280;29800;55.942;37.314;2023-03-15T08:40:15;98944.66;;;9.84;41.22
44138;BME280;29800;55.942;37.314;2023-03-15T08:42:44;98931.63;;;9.96;41.26
44138;BME280;29800;55.942;37.314;2023-03-15T08:45:10;98935.84;;;10.29;40.98
44138;BME280;29800;55.942;37.314;2023-03-15T08:47:36;98935.69;;;10.52;40.45
44138;BME280;29800;55.942;37.314;2023-03-15T08:50:05;98925.91;;;10.71;39.63
44138;BME280;29800;55.942;37.314;2023-03-15T08:52:32;98934.66;;;10.68;39.50
44138;BME280;29800;55.942;37.314;2023-03-15T08:54:58;98931.63;;;10.64;39.51
44138;BME280;29800;55.942;37.314;2023-03-15T08:57:24;98929.72;;;10.80;39.83
44138;BME280;29800;55.942;37.314;2023-03-15T08:59:54;98934.97;;;10.97;39.52
44138;BME280;29800;55.942;37.314;2023-03-15T09:02:21;98938.50;;;10.88;39.45
44138;BME280;29800;55.942;37.314;2023-03-15T09:04:48;98932.50;;;10.85;39.60
44138;BME280;29800;55.942;37.314;2023-03-15T09:07:14;98926.22;;;10.95;39.62
44138;BME280;29800;55.942;37.314;2023-03-15T09:09:40;98937.44;;;11.09;39.35
44138;BME280;29800;55.942;37.314;2023-03-15T09:12:07;98934.16;;;11.12;38.91
44138;BME280;29800;55.942;37.314;2023-03-15T09:14:33;98933.88;;;11.03;38.97
44138;BME280;29800;55.942;37.314;2023-03-15T09:16:59;98927.56;;;11.13;38.95
44138;BME280;29800;55.942;37.314;2023-03-15T09:19:25;98935.78;;;11.13;38.84
44138;BME280;29800;55.942;37.314;2023-03-15T09:21:52;98933.03;;;10.88;38.98
44138;BME280;29800;55.942;37.314;2023-03-15T09:24:18;98939.59;;;10.76;39.57
44138;BME280;29800;55.942;37.314;2023-03-15T09:26:44;98933.28;;;10.76;39.54
44138;BME280;29800;55.942;37.314;2023-03-15T09:29:10;98930.31;;;10.88;39.43
44138;BME280;29800;55.942;37.314;2023-03-15T09:31:37;98937.72;;;11.08;39.86
44138;BME280;29800;55.942;37.314;2023-03-15T09:34:03;98936.34;;;11.26;39.28
44138;BME280;29800;55.942;37.314;2023-03-15T09:36:31;98927.84;;;11.37;38.84
44138;BME280;29800;55.942;37.314;2023-03-15T09:38:57;98938.25;;;11.46;39.10
44138;BME280;29800;55.942;37.314;2023-03-15T09:41:38;98938.75;;;11.78;39.09
44138;BME280;29800;55.942;37.314;2023-03-15T09:44:28;98937.69;;;11.69;38.90
44138;BME280;29800;55.942;37.314;2023-03-15T09:47:21;98946.72;;;11.75;38.99
44138;BME280;29800;55.942;37.314;2023-03-15T09:50:11;98964.78;;;11.86;39.25
44138;BME280;29800;55.942;37.314;2023-03-15T09:53:01;98952.19;;;11.80;39.44
44138;BME280;29800;55.942;37.314;2023-03-15T09:55:29;98937.72;;;11.33;39.95
44138;BME280;29800;55.942;37.314;2023-03-15T09:58:02;98961.53;;;11.07;40.86
44138;BME280;29800;55.942;37.314;2023-03-15T10:00:50;98958.50;;;10.88;41.27
44138;BME280;29800;55.942;37.314;2023-03-15T10:06:12;98974.00;;;10.57;42.01
44138;BME280;29800;55.942;37.314;2023-03-15T10:08:42;98963.81;;;10.37;42.48
44138;BME280;29800;55.942;37.314;2023-03-15T10:16:14;98971.41;;;9.77;43.50
44138;BME280;29800;55.942;37.314;2023-03-15T10:19:05;98958.81;;;9.75;43.92
44138;BME280;29800;55.942;37.314;2023-03-15T10:21:39;98969.69;;;9.65;44.28
44138;BME280;29800;55.942;37.314;2023-03-15T10:25:18;98984.50;;;9.74;44.00
44138;BME280;29800;55.942;37.314;2023-03-15T10:27:21;98968.16;;;9.80;44.30
44138;BME280;29800;55.942;37.314;2023-03-15T10:29:55;98968.66;;;9.77;44.19
44138;BME280;29800;55.942;37.314;2023-03-15T10:32:26;98977.50;;;9.89;44.40
44138;BME280;29800;55.942;37.314;2023-03-15T10:34:56;98966.75;;;9.77;44.61
44138;BME280;29800;55.942;37.314;2023-03-15T10:37:24;98966.38;;;9.58;45.04
44138;BME280;29800;55.942;37.314;2023-03-15T10:39:57;98969.66;;;9.60;44.66
44138;BME280;29800;55.942;37.314;2023-03-15T10:42:32;98961.34;;;9.45;45.65
44138;BME280;29800;55.942;37.314;2023-03-15T10:45:20;98973.44;;;9.54;45.14
44138;BME280;29800;55.942;37.314;2023-03-15T10:47:48;98964.97;;;9.55;45.06
44138;BME280;29800;55.942;37.314;2023-03-15T10:50:26;98972.44;;;9.70;45.08
44138;BME280;29800;55.942;37.314;2023-03-15T10:52:55;98966.00;;;9.49;45.47
44138;BME280;29800;55.942;37.314;2023-03-15T10:55:43;98967.41;;;9.52;45.16
44138;BME280;29800;55.942;37.314;2023-03-15T11:01:29;98955.88;;;9.40;45.90
44138;BME280;29800;55.942;37.314;2023-03-15T11:04:24;98956.63;;;9.35;46.30
44138;BME280;29800;55.942;37.314;2023-03-15T11:09:24;98957.75;;;9.07;46.38
44138;BME280;29800;55.942;37.314;2023-03-15T11:12:02;98956.06;;;9.00;46.97
44138;BME280;29800;55.942;37.314;2023-03-15T11:14:34;98950.56;;;8.95;47.50
44138;BME280;29800;55.942;37.314;2023-03-15T11:17:03;98953.50;;;8.89;46.90
44138;BME280;29800;55.942;37.314;2023-03-15T11:19:33;98951.03;;;8.87;47.68
44138;BME280;29800;55.942;37.314;2023-03-15T11:22:01;98947.38;;;8.76;47.91
44138;BME280;29800;55.942;37.314;2023-03-15T11:24:30;98950.63;;;8.73;48.18
44138;BME280;29800;55.942;37.314;2023-03-15T11:27:02;98944.09;;;8.74;47.51
44138;BME280;29800;55.942;37.314;2023-03-15T11:29:31;98950.31;;;8.70;48.00
44138;BME280;29800;55.942;37.314;2023-03-15T11:32:23;98940.91;;;8.82;47.79
44138;BME280;29800;55.942;37.314;2023-03-15T11:34:58;98937.19;;;8.67;47.88
44138;BME280;29800;55.942;37.314;2023-03-15T11:37:44;98932.22;;;8.63;48.62
44138;BME280;29800;55.942;37.314;2023-03-15T11:40:18;98937.91;;;8.57;48.58
44138;BME280;29800;55.942;37.314;2023-03-15T11:43:00;98932.22;;;8.63;48.96
44138;BME280;29800;55.942;37.314;2023-03-15T11:45:50;98926.47;;;8.60;49.02
44138;BME280;29800;55.942;37.314;2023-03-15T11:48:45;98926.00;;;8.68;48.75
44138;BME280;29800;55.942;37.314;2023-03-15T11:51:13;98940.47;;;8.69;48.94
44138;BME280;29800;55.942;37.314;2023-03-15T11:54:02;98938.41;;;8.81;48.97
44138;BME280;29800;55.942;37.314;2023-03-15T11:59:14;98939.94;;;8.72;48.59
44138;BME280;29800;55.942;37.314;2023-03-15T12:01:54;98944.56;;;8.66;48.71
44138;BME280;29800;55.942;37.314;2023-03-15T12:06:51;98937.91;;;8.57;48.67
44138;BME280;29800;55.942;37.314;2023-03-15T12:12:00;98938.88;;;8.73;49.15
44138;BME280;29800;55.942;37.314;2023-03-15T12:14:28;98941.34;;;8.74;48.77
44138;BME280;29800;55.942;37.314;2023-03-15T12:20:38;98942.31;;;8.90;48.78
44138;BME280;29800;55.942;37.314;2023-03-15T12:26:05;98943.38;;;8.84;49.30
44138;BME280;29800;55.942;37.314;2023-03-15T12:28:37;98942.72;;;8.77;48.74
44138;BME280;29800;55.942;37.314;2023-03-15T12:31:07;98956.06;;;8.73;49.07
44138;BME280;29800;55.942;37.314;2023-03-15T12:33:45;98952.63;;;8.83;49.30
44138;BME280;29800;55.942;37.314;2023-03-15T12:36:40;98947.78;;;8.90;49.54
44138;BME280;29800;55.942;37.314;2023-03-15T12:41:47;98950.31;;;8.97;48.25
44138;BME280;29800;55.942;37.314;2023-03-15T12:47:02;98951.09;;;8.92;48.51
44138;BME280;29800;55.942;37.314;2023-03-15T12:49:32;98947.78;;;8.90;48.56
44138;BME280;29800;55.942;37.314;2023-03-15T12:52:00;98945.31;;;8.89;48.78
44138;BME280;29800;55.942;37.314;2023-03-15T12:57:28;98951.78;;;9.10;48.57
44138;BME280;29800;55.942;37.314;2023-03-15T12:59:58;98952.19;;;9.24;48.46
44138;BME280;29800;55.942;37.314;2023-03-15T13:02:34;98949.78;;;9.32;48.29
44138;BME280;29800;55.942;37.314;2023-03-15T13:05:27;98947.84;;;9.33;48.54
44138;BME280;29800;55.942;37.314;2023-03-15T13:08:06;98956.19;;;9.16;48.98
44138;BME280;29800;55.942;37.314;2023-03-15T13:10:52;98956.13;;;9.06;48.69
44138;BME280;29800;55.942;37.314;2023-03-15T13:16:11;98959.31;;;8.97;48.89
44138;BME280;29800;55.942;37.314;2023-03-15T13:24:28;98956.63;;;9.35;48.26
44138;BME280;29800;55.942;37.314;2023-03-15T13:27:05;98956.38;;;9.36;48.00
44138;BME280;29800;55.942;37.314;2023-03-15T13:29:35;98956.69;;;9.40;48.12
44138;BME280;29800;55.942;37.314;2023-03-15T13:32:14;98945.25;;;9.48;48.11
44138;BME280;29800;55.942;37.314;2023-03-15T13:34:43;98951.25;;;9.45;48.10
44138;BME280;29800;55.942;37.314;2023-03-15T13:37:20;98952.03;;;9.41;48.56
44138;BME280;29800;55.942;37.314;2023-03-15T13:39:56;98945.53;;;9.47;48.20
44138;BME280;29800;55.942;37.314;2023-03-15T13:42:24;98946.06;;;9.49;48.07
44138;BME280;29800;55.942;37.314;2023-03-15T13:45:29;98960.34;;;9.56;48.41
44138;BME280;29800;55.942;37.314;2023-03-15T13:47:56;98952.94;;;9.51;48.31
44138;BME280;29800;55.942;37.314;2023-03-15T13:50:22;98962.25;;;9.55;47.81
44138;BME280;29800;55.942;37.314;2023-03-15T13:52:48;98959.41;;;9.40;48.10
44138;BME280;29800;55.942;37.314;2023-03-15T13:55:20;98968.34;;;9.30;48.05
44138;BME280;29800;55.942;37.314;2023-03-15T13:57:53;98970.59;;;9.38;48.50
44138;BME280;29800;55.942;37.314;2023-03-15T14:00:24;98976.69;;;9.51;47.86
44138;BME280;29800;55.942;37.314;2023-03-15T14:03:05;98979.81;;;9.65;48.10
44138;BME280;29800;55.942;37.314;2023-03-15T14:05:41;98977.84;;;9.60;48.15
44138;BME280;29800;55.942;37.314;2023-03-15T14:08:21;98981.25;;;9.78;47.71
44138;BME280;29800;55.942;37.314;2023-03-15T14:11:02;98977.59;;;9.62;47.49
44138;BME280;29800;55.942;37.314;2023-03-15T14:13:34;98978.25;;;9.42;47.97
44138;BME280;29800;55.942;37.314;2023-03-15T14:16:06;98973.81;;;9.30;48.44
44138;BME280;29800;55.942;37.314;2023-03-15T14:18:38;98976.94;;;9.12;48.63